Jamestown, Ohio
Current Conditions -  °F | °C
As of 8:56 PM on Monday 22 Dec 2014 (Local Time) from KSGH Reporting Station
Broken Clouds Broken Clouds  
Wind Chill: 37°   Ceiling: 11000
Heat Index: 44°   Visibility: 10mi
Dew Point: 37°   Wind: 14mph
Humidity: 76%   Direction: 110°ESE
Pressure: 29.8"   Gusts: NA
Location:  39.66°N, 83.73°W
Report Text: KSGH 230156Z AUTO 11012KT 10SM SCT085 BKN110 07/03 A2980 RMK AO2 T00660027 SLP098
Loading
Personal Weather Stations






























Interactive Weather Map New forecast layout! Learn more

10-Day Weather Forecast

Advertisements
Track Severe Weather on mobile